createdAt,value
2018-11-10T00:01:44.517Z,71.73
2018-11-10T00:04:12.917Z,76.87
2018-11-10T00:06:41.199Z,81.93
2018-11-10T00:09:09.744Z,74.03
2018-11-10T00:11:38.017Z,75.23
2018-11-10T00:14:06.434Z,80.10
2018-11-10T00:16:35.144Z,74.00
2018-11-10T00:19:03.398Z,79.97
2018-11-10T00:21:31.931Z,75.43
2018-11-10T00:24:00.214Z,82.63
2018-11-10T00:26:28.548Z,78.53
2018-11-10T00:28:57.251Z,73.33
2018-11-10T00:31:25.698Z,74.77
2018-11-10T00:33:53.995Z,71.57
2018-11-10T00:36:22.290Z,80.10
2018-11-10T00:38:50.765Z,80.17
2018-11-10T00:41:19.110Z,74.20
2018-11-10T00:43:47.417Z,75.17
2018-11-10T00:46:15.741Z,77.53
2018-11-10T00:48:44.036Z,76.07
2018-11-10T00:51:12.325Z,81.13
2018-11-10T00:53:40.643Z,72.10
2018-11-10T00:56:08.960Z,75.00
2018-11-10T00:58:37.238Z,78.07
2018-11-10T01:01:05.543Z,79.63
2018-11-10T01:03:33.818Z,77.03
2018-11-10T01:06:02.117Z,77.37
2018-11-10T01:08:30.398Z,79.50
2018-11-10T01:10:58.688Z,81.50
2018-11-10T01:13:26.955Z,76.33
2018-11-10T01:15:55.229Z,75.33
2018-11-10T01:18:23.497Z,75.53
2018-11-10T01:20:51.797Z,68.93
2018-11-10T01:23:20.169Z,75.73
2018-11-10T01:25:48.460Z,78.17
2018-11-10T01:28:16.767Z,74.70
2018-11-10T01:30:45.064Z,75.33
2018-11-10T01:33:13.357Z,72.50
2018-11-10T01:35:41.718Z,79.17
2018-11-10T01:38:10.079Z,69.87
2018-11-10T01:40:38.377Z,81.00
2018-11-10T01:43:06.716Z,73.33
2018-11-10T01:45:35.106Z,67.23
2018-11-10T01:48:03.376Z,77.07
2018-11-10T01:50:31.671Z,69.40
2018-11-10T01:52:59.942Z,71.60
2018-11-10T01:55:28.246Z,70.60
2018-11-10T01:57:56.543Z,77.80
2018-11-10T02:00:24.877Z,71.23
2018-11-10T02:02:53.157Z,74.07
2018-11-10T02:05:21.454Z,68.00
2018-11-10T02:07:49.736Z,86.53
2018-11-10T02:10:18.073Z,69.13
2018-11-10T02:12:46.363Z,70.33
2018-11-10T02:15:15.756Z,69.80
2018-11-10T02:17:44.075Z,78.20
2018-11-10T02:20:13.591Z,71.57
2018-11-10T02:22:42.187Z,74.30
2018-11-10T02:25:11.479Z,73.03
2018-11-10T02:27:40.283Z,72.57
2018-11-10T02:30:09.819Z,74.03
2018-11-10T02:32:38.129Z,71.53
2018-11-10T02:35:07.423Z,68.40
2018-11-10T02:37:36.151Z,73.30
2018-11-10T02:40:04.699Z,72.43
2018-11-10T02:42:33.043Z,63.83
2018-11-10T02:45:01.318Z,67.43
2018-11-10T02:47:29.630Z,69.87
2018-11-10T02:49:57.935Z,69.07
2018-11-10T02:52:26.227Z,69.63
2018-11-10T02:54:54.498Z,69.30
2018-11-10T02:57:22.783Z,74.23
2018-11-10T02:59:51.066Z,68.80
2018-11-10T03:02:19.398Z,58.90
2018-11-10T03:04:47.675Z,73.90
2018-11-10T03:07:15.989Z,67.33
2018-11-10T03:09:44.307Z,65.90
2018-11-10T03:12:12.612Z,61.27
2018-11-10T03:14:40.947Z,64.30
2018-11-10T03:17:09.246Z,69.27
2018-11-10T03:19:37.579Z,68.20
2018-11-10T03:22:05.861Z,67.47
2018-11-10T03:24:34.127Z,67.13
2018-11-10T03:27:02.440Z,67.30
2018-11-10T03:29:30.738Z,70.73
2018-11-10T03:31:59.068Z,58.80
2018-11-10T03:34:27.441Z,74.70
2018-11-10T03:36:55.853Z,67.70
2018-11-10T03:39:24.137Z,78.57
2018-11-10T03:41:52.451Z,64.67
2018-11-10T03:44:20.737Z,68.23
2018-11-10T03:46:49.037Z,71.10
2018-11-10T03:49:17.320Z,74.60
2018-11-10T03:51:45.670Z,62.97
2018-11-10T03:54:13.935Z,68.00
2018-11-10T03:56:42.258Z,61.40
2018-11-10T03:59:10.531Z,65.87
2018-11-10T04:01:38.904Z,65.67
2018-11-10T04:04:07.197Z,63.60
2018-11-10T04:06:35.485Z,65.33
2018-11-10T04:09:04.410Z,68.57
2018-11-10T04:11:32.693Z,63.77
2018-11-10T04:14:00.989Z,66.40
2018-11-10T04:16:29.295Z,57.40
2018-11-10T04:18:57.623Z,59.37
2018-11-10T04:21:25.919Z,63.63
2018-11-10T04:23:54.254Z,62.13
2018-11-10T04:26:22.544Z,59.17
2018-11-10T04:28:51.135Z,62.27
2018-11-10T04:31:19.737Z,66.07
2018-11-10T04:36:28.262Z,61.43
2018-11-10T04:38:56.806Z,59.17
2018-11-10T04:41:25.176Z,63.03
2018-11-10T04:43:53.550Z,55.60
2018-11-10T04:46:21.960Z,63.27
2018-11-10T04:48:50.361Z,59.53
2018-11-10T04:51:18.689Z,60.30
2018-11-10T04:53:47.076Z,61.77
2018-11-10T04:56:15.448Z,59.00
2018-11-10T04:58:43.845Z,60.10
2018-11-10T05:01:12.270Z,60.90
2018-11-10T05:03:40.646Z,61.53
2018-11-10T05:06:08.960Z,60.07
2018-11-10T05:08:37.369Z,59.27
2018-11-10T05:11:05.995Z,64.63
2018-11-10T05:13:34.339Z,63.43
2018-11-10T05:16:02.712Z,60.60
2018-11-10T05:18:31.097Z,54.27
2018-11-10T05:20:59.533Z,59.23
2018-11-10T05:23:28.233Z,63.13
2018-11-10T05:25:56.590Z,59.17
2018-11-10T05:28:24.944Z,58.73
2018-11-10T05:30:53.366Z,59.80
2018-11-10T05:33:21.729Z,55.10
2018-11-10T05:35:50.089Z,57.27
2018-11-10T05:38:18.519Z,53.07
2018-11-10T05:40:46.902Z,52.80
2018-11-10T05:43:15.319Z,52.13
2018-11-10T05:45:43.813Z,56.03
2018-11-10T05:48:12.122Z,49.20
2018-11-10T05:50:40.498Z,50.90
2018-11-10T05:53:08.848Z,50.10
2018-11-10T05:55:37.455Z,56.97
2018-11-10T05:58:05.839Z,53.87
2018-11-10T06:00:34.458Z,54.20
2018-11-10T06:03:02.861Z,49.67
2018-11-10T06:05:31.327Z,53.53
2018-11-10T06:07:59.715Z,48.17
2018-11-10T06:10:28.288Z,49.20
2018-11-10T06:12:56.635Z,48.23
2018-11-10T06:15:25.059Z,48.53
2018-11-10T06:17:53.376Z,45.23
2018-11-10T06:20:21.769Z,59.97
2018-11-10T06:22:50.239Z,49.43
2018-11-10T06:25:18.683Z,51.87
2018-11-10T06:27:53.691Z,55.07
2018-11-10T06:30:22.025Z,50.30
2018-11-10T06:32:50.370Z,49.83
2018-11-10T06:35:18.806Z,44.27
2018-11-10T06:37:47.134Z,57.00
2018-11-10T06:40:15.603Z,52.10
2018-11-10T06:42:44.408Z,48.60
2018-11-10T06:45:12.915Z,45.23
2018-11-10T06:47:41.372Z,52.33
2018-11-10T06:50:10.972Z,44.80
2018-11-10T06:52:39.404Z,41.87
2018-11-10T06:55:09.045Z,42.73
2018-11-10T06:57:37.429Z,42.90
2018-11-10T07:00:08.480Z,41.93
2018-11-10T07:02:36.922Z,44.63
2018-11-10T07:05:06.065Z,41.50
2018-11-10T07:07:35.753Z,42.90
2018-11-10T07:10:04.437Z,45.07
2018-11-10T07:12:32.803Z,38.27
2018-11-10T07:15:01.170Z,44.73
2018-11-10T07:17:29.792Z,51.87
2018-11-10T07:19:58.099Z,42.83
2018-11-10T07:22:26.443Z,41.03
2018-11-10T07:24:54.832Z,40.37
2018-11-10T07:27:23.167Z,43.27
2018-11-10T07:29:51.518Z,41.97
2018-11-10T07:32:19.961Z,44.73
2018-11-10T07:34:48.284Z,45.60
2018-11-10T07:37:16.670Z,46.07
2018-11-10T07:42:19.671Z,43.40
2018-11-10T07:44:49.131Z,41.57
2018-11-10T07:47:17.963Z,40.50
2018-11-10T07:49:46.343Z,45.97
2018-11-10T07:52:14.755Z,43.40
2018-11-10T07:54:43.070Z,43.17
2018-11-10T07:57:11.505Z,45.10
2018-11-10T07:59:39.862Z,46.23
2018-11-10T08:02:08.905Z,45.53
2018-11-10T08:04:37.497Z,40.87
2018-11-10T08:07:05.847Z,51.97
2018-11-10T08:09:34.280Z,46.63
2018-11-10T08:12:03.801Z,49.57
2018-11-10T08:14:32.142Z,41.97
2018-11-10T08:17:00.590Z,48.63
2018-11-10T08:19:28.946Z,50.83
2018-11-10T08:21:57.327Z,43.53
2018-11-10T08:24:25.664Z,42.83
2018-11-10T08:26:54.046Z,46.13
2018-11-10T08:29:22.427Z,47.00
2018-11-10T08:31:50.869Z,45.77
2018-11-10T08:34:19.260Z,49.53
2018-11-10T08:36:47.648Z,49.20
2018-11-10T08:39:16.045Z,45.83
2018-11-10T08:41:44.474Z,46.07
2018-11-10T08:44:12.880Z,48.10
2018-11-10T08:46:41.213Z,50.20
2018-11-10T08:49:09.663Z,51.47
2018-11-10T08:51:38.058Z,50.73
2018-11-10T08:54:06.603Z,52.20
2018-11-10T08:56:34.997Z,50.17
2018-11-10T08:59:03.432Z,50.77
2018-11-10T09:01:31.802Z,54.13
2018-11-10T09:04:00.098Z,54.40
2018-11-10T09:06:28.825Z,47.23
2018-11-10T09:08:59.039Z,57.33
2018-11-10T09:11:27.458Z,49.77
2018-11-10T09:13:55.902Z,58.80
2018-11-10T09:16:25.231Z,56.80
2018-11-10T09:18:53.670Z,50.60
2018-11-10T09:21:22.075Z,52.47
2018-11-10T09:23:50.485Z,52.07
2018-11-10T09:26:18.899Z,56.57
2018-11-10T09:28:47.256Z,60.83
2018-11-10T09:31:15.655Z,56.87
2018-11-10T09:33:44.088Z,54.23
2018-11-10T09:36:12.728Z,56.33
2018-11-10T09:38:41.192Z,55.30
2018-11-10T09:41:18.095Z,50.53
2018-11-10T09:43:51.396Z,49.70
2018-11-10T09:46:19.806Z,48.33
2018-11-10T09:48:48.175Z,49.03
2018-11-10T09:51:16.577Z,48.67
2018-11-10T09:53:45.124Z,48.07
2018-11-10T09:56:13.528Z,49.77
2018-11-10T09:58:42.062Z,45.27
2018-11-10T10:01:10.567Z,47.87
2018-11-10T10:03:38.914Z,51.33
2018-11-10T10:06:07.338Z,50.33
2018-11-10T10:08:35.856Z,46.47
2018-11-10T10:11:04.415Z,51.67
2018-11-10T10:13:33.090Z,50.53
2018-11-10T10:16:01.577Z,48.80
2018-11-10T10:18:29.882Z,50.80
2018-11-10T10:20:58.400Z,45.47
2018-11-10T10:23:26.969Z,47.10
2018-11-10T10:25:55.348Z,38.73
2018-11-10T10:28:23.905Z,40.50
2018-11-10T10:30:52.268Z,42.60
2018-11-10T10:33:20.741Z,44.47
2018-11-10T10:35:49.181Z,40.40
2018-11-10T10:38:17.573Z,42.37
2018-11-10T10:40:45.979Z,38.80
2018-11-10T10:43:14.433Z,41.57
2018-11-10T10:45:42.826Z,40.37
2018-11-10T10:48:11.217Z,41.13
2018-11-10T10:50:39.621Z,40.67
2018-11-10T10:53:08.017Z,35.47
2018-11-10T10:55:36.419Z,39.50
2018-11-10T10:58:04.907Z,40.73
2018-11-10T11:00:38.658Z,36.93
2018-11-10T11:03:12.586Z,39.70
2018-11-10T11:05:42.885Z,42.20
2018-11-10T11:08:11.383Z,38.23
2018-11-10T11:10:39.685Z,37.87
2018-11-10T11:13:08.072Z,37.80
2018-11-10T11:15:36.574Z,42.83
2018-11-10T11:18:05.073Z,38.40
2018-11-10T11:20:33.484Z,37.97
2018-11-10T11:23:01.800Z,37.03
2018-11-10T11:25:30.105Z,36.63
2018-11-10T11:27:58.391Z,38.80
2018-11-10T11:30:26.739Z,38.20
2018-11-10T11:32:55.027Z,30.90
2018-11-10T11:35:23.363Z,34.67
2018-11-10T11:37:51.648Z,32.55
2018-11-10T11:40:20.022Z,35.83
2018-11-10T11:42:48.375Z,36.27
2018-11-10T11:45:16.704Z,36.17
2018-11-10T11:47:44.980Z,34.27
2018-11-10T11:50:14.577Z,33.80
2018-11-10T11:52:43.615Z,35.97
2018-11-10T11:55:12.545Z,31.47
2018-11-10T11:57:41.161Z,28.20
2018-11-10T12:00:12.662Z,30.63
2018-11-10T12:02:41.723Z,30.10
2018-11-10T12:05:11.179Z,31.70
2018-11-10T12:07:39.515Z,29.97
2018-11-10T12:10:08.938Z,28.67
2018-11-10T12:12:37.237Z,30.37
2018-11-10T12:15:06.269Z,26.23
2018-11-10T12:17:34.577Z,30.00
2018-11-10T12:20:02.885Z,27.47
2018-11-10T12:22:31.183Z,26.80
2018-11-10T12:24:59.505Z,28.53
2018-11-10T12:27:28.015Z,25.50
2018-11-10T12:29:56.330Z,25.60
2018-11-10T12:32:24.647Z,24.93
2018-11-10T12:34:52.994Z,26.73
2018-11-10T12:37:21.286Z,25.30
2018-11-10T12:39:49.627Z,29.33
2018-11-10T12:42:17.964Z,26.63
2018-11-10T12:44:46.555Z,25.82
2018-11-10T12:47:14.893Z,25.97
2018-11-10T12:49:43.234Z,26.62
2018-11-10T12:52:12.154Z,25.43
2018-11-10T12:54:40.498Z,27.73
2018-11-10T12:57:08.775Z,27.73
2018-11-10T12:59:37.090Z,28.70
2018-11-10T13:02:05.510Z,31.27
2018-11-10T13:04:33.802Z,27.43
2018-11-10T13:07:02.110Z,29.73
2018-11-10T13:09:30.403Z,32.60
2018-11-10T13:11:58.816Z,31.13
2018-11-10T13:14:27.132Z,29.03
2018-11-10T13:16:55.472Z,29.60
2018-11-10T13:19:23.773Z,31.50
2018-11-10T13:21:52.153Z,28.20
2018-11-10T13:24:20.473Z,27.43
2018-11-10T13:26:48.839Z,29.67
2018-11-10T13:29:17.181Z,29.93
2018-11-10T13:31:45.665Z,29.10
2018-11-10T13:34:13.901Z,31.80
2018-11-10T13:36:42.293Z,30.37
2018-11-10T13:39:10.925Z,32.10
2018-11-10T13:41:39.475Z,32.63
2018-11-10T13:44:07.767Z,28.93
2018-11-10T13:46:36.115Z,33.13
2018-11-10T13:49:04.487Z,30.80
2018-11-10T13:51:33.000Z,31.60
2018-11-10T13:54:01.148Z,32.03
2018-11-10T13:56:29.485Z,34.13
2018-11-10T13:58:57.780Z,36.87
2018-11-10T14:01:26.089Z,32.53
2018-11-10T14:03:54.424Z,28.30
2018-11-10T14:06:22.812Z,35.43
2018-11-10T14:08:51.387Z,35.77
2018-11-10T14:11:19.726Z,32.73
2018-11-10T14:13:48.007Z,34.93
2018-11-10T14:16:16.317Z,34.43
2018-11-10T14:18:44.871Z,35.87
2018-11-10T14:21:13.229Z,36.93
2018-11-10T14:23:41.942Z,39.47
2018-11-10T14:26:10.282Z,35.60
2018-11-10T14:28:38.752Z,35.53
2018-11-10T14:31:07.399Z,32.73
2018-11-10T14:33:35.763Z,36.70
2018-11-10T14:36:04.084Z,36.87
2018-11-10T14:38:32.410Z,34.87
2018-11-10T14:41:00.688Z,33.27
2018-11-10T14:43:29.081Z,33.87
2018-11-10T14:45:57.451Z,34.27
2018-11-10T14:48:25.470Z,35.50
2018-11-10T14:50:53.815Z,39.37
2018-11-10T14:53:22.153Z,38.63
2018-11-10T14:55:50.485Z,32.00
2018-11-10T14:58:18.928Z,32.33
2018-11-10T15:00:47.224Z,32.13
2018-11-10T15:03:15.554Z,32.77
2018-11-10T15:05:43.877Z,35.50
2018-11-10T15:08:12.204Z,36.07
2018-11-10T15:10:40.599Z,37.43
2018-11-10T15:13:08.988Z,35.40
2018-11-10T15:15:37.381Z,34.80
2018-11-10T15:18:05.782Z,38.83
2018-11-10T15:20:34.046Z,37.93
2018-11-10T15:23:02.395Z,36.00
2018-11-10T15:25:30.768Z,38.00
2018-11-10T15:27:59.165Z,36.60
2018-11-10T15:30:27.478Z,39.77
2018-11-10T15:32:55.834Z,33.13
2018-11-10T15:35:24.193Z,32.70
2018-11-10T15:37:53.068Z,31.30
2018-11-10T15:40:22.261Z,31.43
2018-11-10T15:42:50.663Z,35.60
2018-11-10T15:45:19.745Z,32.70
2018-11-10T15:47:48.082Z,34.70
2018-11-10T15:50:17.241Z,36.83
2018-11-10T15:52:45.742Z,36.13
2018-11-10T15:55:14.816Z,40.00
2018-11-10T15:57:43.375Z,35.40
2018-11-10T16:00:15.345Z,43.57
2018-11-10T16:02:43.668Z,36.57
2018-11-10T16:05:12.627Z,32.77
2018-11-10T16:07:40.954Z,36.70
2018-11-10T16:10:09.370Z,35.63
2018-11-10T16:12:37.958Z,35.47
2018-11-10T16:15:08.172Z,38.57
2018-11-10T16:17:36.517Z,33.77
2018-11-10T16:20:06.307Z,35.67
2018-11-10T16:22:34.627Z,37.57
2018-11-10T16:25:02.987Z,35.17
2018-11-10T16:27:31.347Z,39.07
2018-11-10T16:29:59.773Z,37.70
2018-11-10T16:32:28.126Z,37.77
2018-11-10T16:34:56.659Z,39.43
2018-11-10T16:37:25.095Z,43.67
2018-11-10T16:39:53.452Z,39.80
2018-11-10T16:42:21.859Z,36.83
2018-11-10T16:44:50.186Z,38.37
2018-11-10T16:47:18.517Z,37.67
2018-11-10T16:49:46.843Z,39.67
2018-11-10T16:52:15.230Z,36.60
2018-11-10T16:54:43.615Z,33.90
2018-11-10T16:57:11.919Z,36.83
2018-11-10T16:59:40.303Z,36.17
2018-11-10T17:02:08.670Z,36.30
2018-11-10T17:04:36.986Z,35.37
2018-11-10T17:07:05.527Z,34.43
2018-11-10T17:09:33.874Z,38.87
2018-11-10T17:12:02.179Z,35.53
2018-11-10T17:14:30.519Z,35.40
2018-11-10T17:16:58.822Z,34.13
2018-11-10T17:19:27.155Z,40.97
2018-11-10T17:21:55.546Z,37.63
2018-11-10T17:24:23.773Z,34.97
2018-11-10T17:26:52.120Z,37.23
2018-11-10T17:29:20.430Z,34.93
2018-11-10T17:31:48.776Z,37.23
2018-11-10T17:34:17.107Z,33.87
2018-11-10T17:36:45.400Z,37.37
2018-11-10T17:39:13.979Z,35.30
2018-11-10T17:41:42.083Z,31.50
2018-11-10T17:44:10.445Z,34.10
2018-11-10T17:46:38.768Z,37.40
2018-11-10T17:49:07.072Z,38.53
2018-11-10T17:51:35.398Z,32.43
2018-11-10T17:54:03.971Z,36.00
2018-11-10T17:56:32.347Z,33.50
2018-11-10T17:59:00.658Z,33.47
2018-11-10T18:01:29.005Z,32.17
2018-11-10T18:03:57.387Z,36.03
2018-11-10T18:06:26.561Z,33.10
2018-11-10T18:08:54.949Z,34.17
2018-11-10T18:11:23.253Z,38.40
2018-11-10T18:13:51.550Z,34.37
2018-11-10T18:16:19.970Z,37.97
2018-11-10T18:18:48.277Z,35.70
2018-11-10T18:21:16.636Z,36.73
2018-11-10T18:23:45.008Z,32.23
2018-11-10T18:26:13.361Z,36.77
2018-11-10T18:28:41.702Z,36.63
2018-11-10T18:31:10.049Z,38.10
2018-11-10T18:33:38.354Z,35.83
2018-11-10T18:36:06.718Z,34.43
2018-11-10T18:38:35.020Z,38.00
2018-11-10T18:41:03.327Z,39.23
2018-11-10T18:43:31.663Z,37.90
2018-11-10T18:46:00.026Z,37.93
2018-11-10T18:48:28.326Z,36.43
2018-11-10T18:50:56.726Z,38.27
2018-11-10T18:53:25.051Z,38.43
2018-11-10T18:55:53.493Z,35.87
2018-11-10T18:58:21.850Z,39.27
2018-11-10T19:00:50.333Z,37.57
2018-11-10T19:03:18.913Z,41.87
2018-11-10T19:05:47.239Z,44.87
2018-11-10T19:08:15.612Z,39.80
2018-11-10T19:10:44.066Z,36.97
2018-11-10T19:13:12.446Z,40.07
2018-11-10T19:15:41.538Z,41.90
2018-11-10T19:18:10.514Z,39.97
2018-11-10T19:20:38.920Z,39.47
2018-11-10T19:23:07.381Z,41.60
2018-11-10T19:25:35.740Z,42.83
2018-11-10T19:28:04.051Z,37.43
2018-11-10T19:30:32.373Z,35.93
2018-11-10T19:33:00.815Z,47.27
2018-11-10T19:35:29.243Z,42.57
2018-11-10T19:37:57.577Z,43.73
2018-11-10T19:40:25.940Z,40.80
2018-11-10T19:42:54.326Z,40.17
2018-11-10T19:45:22.677Z,38.73
2018-11-10T19:47:51.054Z,41.50
2018-11-10T19:50:19.558Z,44.03
2018-11-10T19:52:47.759Z,43.20
2018-11-10T19:55:17.204Z,42.77
2018-11-10T19:57:45.603Z,41.93
2018-11-10T20:00:16.636Z,40.70
2018-11-10T20:02:45.036Z,39.63
2018-11-10T20:05:13.396Z,38.57
2018-11-10T20:07:41.832Z,39.50
2018-11-10T20:10:11.331Z,43.20
2018-11-10T20:12:41.279Z,43.43
2018-11-10T20:15:11.140Z,58.23
2018-11-10T20:17:40.330Z,44.60
2018-11-10T20:20:09.755Z,44.20
2018-11-10T20:22:38.181Z,50.27
2018-11-10T20:25:08.233Z,42.23
2018-11-10T20:27:36.648Z,43.87
2018-11-10T20:30:06.913Z,45.50
2018-11-10T20:32:35.395Z,44.40
2018-11-10T20:35:03.653Z,43.20
2018-11-10T20:37:31.974Z,44.97
2018-11-10T20:40:00.338Z,46.53
2018-11-10T20:42:28.693Z,42.43
2018-11-10T20:44:57.111Z,47.20
2018-11-10T20:47:25.470Z,44.47
2018-11-10T20:49:53.849Z,42.90
2018-11-10T20:52:22.202Z,46.13
2018-11-10T20:54:50.555Z,43.83
2018-11-10T20:57:18.889Z,45.17
2018-11-10T20:59:47.242Z,45.53
2018-11-10T21:02:15.567Z,47.07
2018-11-10T21:04:43.885Z,46.37
2018-11-10T21:07:12.200Z,48.47
2018-11-10T21:09:40.636Z,42.33
2018-11-10T21:12:08.985Z,46.03
2018-11-10T21:14:37.357Z,46.30
2018-11-10T21:17:05.919Z,48.57
2018-11-10T21:19:34.326Z,54.43
2018-11-10T21:22:02.756Z,52.10
2018-11-10T21:24:31.170Z,51.73
2018-11-10T21:26:59.515Z,48.30
2018-11-10T21:29:28.062Z,43.40
2018-11-10T21:31:56.388Z,53.50
2018-11-10T21:34:24.823Z,48.63
2018-11-10T21:36:53.239Z,48.03
2018-11-10T21:39:21.559Z,46.10
2018-11-10T21:41:49.957Z,54.97
2018-11-10T21:44:18.395Z,52.03
2018-11-10T21:46:46.720Z,42.67
2018-11-10T21:49:15.140Z,46.93
2018-11-10T21:51:44.342Z,47.30
2018-11-10T21:54:12.742Z,54.57
2018-11-10T21:56:41.527Z,48.27
2018-11-10T21:59:16.611Z,54.57
2018-11-10T22:01:45.002Z,50.23
2018-11-10T22:04:13.330Z,59.57
2018-11-10T22:06:48.383Z,62.53
2018-11-10T22:09:16.860Z,50.17
2018-11-10T22:11:45.176Z,49.17
2018-11-10T22:14:13.536Z,49.17
2018-11-10T22:16:41.867Z,50.27
2018-11-10T22:19:10.277Z,48.60
2018-11-10T22:21:38.772Z,53.47
2018-11-10T22:24:07.159Z,52.77
2018-11-10T22:26:35.482Z,49.87
2018-11-10T22:29:03.881Z,47.27
2018-11-10T22:31:32.461Z,49.47
2018-11-10T22:34:00.857Z,48.43
2018-11-10T22:36:29.616Z,50.03
2018-11-10T22:38:58.007Z,50.23
2018-11-10T22:41:27.301Z,48.70
2018-11-10T22:43:55.806Z,49.47
2018-11-10T22:46:24.251Z,53.37
2018-11-10T22:48:52.621Z,52.20
2018-11-10T22:51:21.197Z,49.17
2018-11-10T22:53:49.709Z,49.63
2018-11-10T22:56:18.103Z,53.97
2018-11-10T22:58:46.486Z,59.73
2018-11-10T23:01:15.120Z,50.40
2018-11-10T23:03:43.600Z,56.43
2018-11-10T23:06:11.937Z,59.23
2018-11-10T23:08:40.343Z,50.33
2018-11-10T23:11:08.747Z,51.90
2018-11-10T23:13:37.266Z,53.23
2018-11-10T23:16:05.955Z,52.67
2018-11-10T23:18:35.295Z,57.57
2018-11-10T23:21:03.796Z,51.67
2018-11-10T23:23:32.330Z,56.27
2018-11-10T23:26:00.817Z,51.20
2018-11-10T23:28:29.235Z,53.00
2018-11-10T23:30:57.647Z,55.37
2018-11-10T23:33:25.979Z,60.73
2018-11-10T23:35:54.351Z,56.77
2018-11-10T23:38:23.059Z,58.30
2018-11-10T23:40:51.441Z,54.57
2018-11-10T23:43:19.924Z,50.50
2018-11-10T23:45:48.320Z,52.53
2018-11-10T23:48:16.705Z,54.90
2018-11-10T23:50:45.161Z,57.40
2018-11-10T23:53:14.383Z,55.07
2018-11-10T23:55:43.344Z,53.17
2018-11-10T23:58:11.735Z,49.43
